Aérodrome :
LOGIN :

S'inscrire | Disclaimer

   EN    FR    IT 

 










Légende :    VFR   VFR Marginal   IFR   IFR Intensif   IFR Très Intensif
Visi : 
Plafond : 
>= 8 km
>= 3000ft
5 à 8 km
1000 à 3000 ft
1500m à 5 km
500 à 1000 ft
800 à 1500m
200 à 500 ft
< 800m
< 200 ft
Symboles :   Orages  Brouillard  Fortes neiges  Fortes précipitations  Vent > 20 kt
SIGMETs :   Divers  Orages  Givrage  Turbulence  Onde Orograph.  Cendres Volcan.






- Altitude de l'aérodrome : 466 ft


LHPA - Pápa

DERNIER METAR :
  • 200145Z 18004KT CAVOK M03/M05 Q1020 NOSIG RMK BLU

METARs EXPIRÉS :
  • 200115Z 17004KT CAVOK M02/M04 Q1020 NOSIG RMK BLU
  • 200045Z 15004KT CAVOK M03/M05 Q1020 NOSIG RMK BLU
  • 200015Z 20004KT CAVOK M02/M05 Q1020 NOSIG RMK BLU
  • 192345Z 28004KT CAVOK M03/M05 Q1021 NOSIG RMK BLU
  • 192315Z 21004KT CAVOK M03/M06 Q1021 NOSIG RMK BLU

TAF TAF LHPA
Valide du 20 à 00h jusqu'au 21 à 00h UTC


192315Z 2000/2024 20004KT CAVOK
BECMG 2005/2008 22008KT 9999 BKN040 BKN083
TEMPO 2008/2012 4000 -SHRA -SHSNRA SCT020 BKN030TCU BKN060
BECMG 2013/2015 30009KT
TEMPO 2013/2016 32016G32KT 1500 SHSN -TSSN SCT020CB BKN030 OVC050



MET'MAP, la Météo Aéronautique d'un coup d'oeil ! - Copyright ORBIFLY Décembre 2007 - Disclaimer

ORBIFLY MET'MAP TEAM :

Programmation & Développement : Alexandra Zaïnal
Sur une idée originale de : Baudouin d'Aumeries
Assistance à la programmation : Marc-Olivier Méhu
Soutien technique & logistique : Manuel Goepfert

Contact : metmap@orbifly.com




SOURCES & CREDITS :

   NOAA